sensor_id;sensor_type;location;lat;lon;timestamp;P1;durP1;ratioP1;P2;durP2;ratioP2
50249;SDS011;36133;42.522;27.456;2022-12-18T00:01:21;9.00;;;4.78;;
50249;SDS011;36133;42.522;27.456;2022-12-18T00:03:50;8.55;;;5.15;;
50249;SDS011;36133;42.522;27.456;2022-12-18T00:06:17;10.05;;;5.45;;
50249;SDS011;36133;42.522;27.456;2022-12-18T00:08:43;10.90;;;6.15;;
50249;SDS011;36133;42.522;27.456;2022-12-18T00:11:13;9.13;;;6.70;;
50249;SDS011;36133;42.522;27.456;2022-12-18T00:13:41;8.23;;;6.50;;
50249;SDS011;36133;42.522;27.456;2022-12-18T00:16:11;10.63;;;7.38;;
50249;SDS011;36133;42.522;27.456;2022-12-18T00:18:38;13.88;;;7.20;;
50249;SDS011;36133;42.522;27.456;2022-12-18T00:21:05;15.60;;;8.75;;
50249;SDS011;36133;42.522;27.456;2022-12-18T00:23:33;12.90;;;8.27;;
50249;SDS011;36133;42.522;27.456;2022-12-18T00:26:03;14.40;;;8.13;;
50249;SDS011;36133;42.522;27.456;2022-12-18T00:28:30;9.40;;;7.45;;
50249;SDS011;36133;42.522;27.456;2022-12-18T00:31:02;16.55;;;9.10;;
50249;SDS011;36133;42.522;27.456;2022-12-18T00:33:29;12.70;;;8.70;;
50249;SDS011;36133;42.522;27.456;2022-12-18T00:36:00;14.27;;;8.75;;
50249;SDS011;36133;42.522;27.456;2022-12-18T00:38:46;12.07;;;7.93;;
50249;SDS011;36133;42.522;27.456;2022-12-18T00:41:13;14.20;;;8.43;;
50249;SDS011;36133;42.522;27.456;2022-12-18T00:44:00;10.75;;;7.88;;
50249;SDS011;36133;42.522;27.456;2022-12-18T00:46:25;14.82;;;8.48;;
50249;SDS011;36133;42.522;27.456;2022-12-18T00:48:51;13.65;;;9.90;;
50249;SDS011;36133;42.522;27.456;2022-12-18T00:51:16;25.70;;;15.52;;
50249;SDS011;36133;42.522;27.456;2022-12-18T00:53:45;25.90;;;16.98;;
50249;SDS011;36133;42.522;27.456;2022-12-18T00:56:17;28.13;;;17.52;;
50249;SDS011;36133;42.522;27.456;2022-12-18T01:04:18;29.92;;;21.08;;
50249;SDS011;36133;42.522;27.456;2022-12-18T01:06:43;34.53;;;21.90;;
50249;SDS011;36133;42.522;27.456;2022-12-18T01:09:09;33.47;;;22.85;;
50249;SDS011;36133;42.522;27.456;2022-12-18T01:11:34;35.10;;;25.13;;
50249;SDS011;36133;42.522;27.456;2022-12-18T01:14:00;36.97;;;24.30;;
50249;SDS011;36133;42.522;27.456;2022-12-18T01:16:26;25.80;;;17.25;;
50249;SDS011;36133;42.522;27.456;2022-12-18T01:18:52;16.35;;;11.60;;
50249;SDS011;36133;42.522;27.456;2022-12-18T01:21:22;18.88;;;10.65;;
50249;SDS011;36133;42.522;27.456;2022-12-18T01:23:55;16.13;;;9.02;;
50249;SDS011;36133;42.522;27.456;2022-12-18T01:26:21;9.75;;;7.13;;
50249;SDS011;36133;42.522;27.456;2022-12-18T01:28:48;8.75;;;5.00;;
50249;SDS011;36133;42.522;27.456;2022-12-18T01:31:18;6.18;;;3.88;;
50249;SDS011;36133;42.522;27.456;2022-12-18T01:33:48;3.90;;;3.00;;
50249;SDS011;36133;42.522;27.456;2022-12-18T01:36:14;6.07;;;3.20;;
50249;SDS011;36133;42.522;27.456;2022-12-18T01:38:50;3.70;;;2.97;;
50249;SDS011;36133;42.522;27.456;2022-12-18T01:41:18;4.65;;;2.70;;
50249;SDS011;36133;42.522;27.456;2022-12-18T01:43:50;4.28;;;3.03;;
50249;SDS011;36133;42.522;27.456;2022-12-18T01:55:05;3.90;;;2.85;;
50249;SDS011;36133;42.522;27.456;2022-12-18T03:00:01;5.63;;;3.28;;
50249;SDS011;36133;42.522;27.456;2022-12-18T03:02:39;3.25;;;2.60;;
50249;SDS011;36133;42.522;27.456;2022-12-18T03:26:58;5.13;;;3.30;;
50249;SDS011;36133;42.522;27.456;2022-12-18T03:46:07;9.25;;;3.75;;
50249;SDS011;36133;42.522;27.456;2022-12-18T04:05:20;6.28;;;4.90;;
50249;SDS011;36133;42.522;27.456;2022-12-18T04:07:48;8.40;;;5.30;;
50249;SDS011;36133;42.522;27.456;2022-12-18T04:10:17;8.63;;;5.43;;
50249;SDS011;36133;42.522;27.456;2022-12-18T04:12:43;5.45;;;4.68;;
50249;SDS011;36133;42.522;27.456;2022-12-18T04:15:10;8.18;;;5.57;;
50249;SDS011;36133;42.522;27.456;2022-12-18T04:17:38;6.50;;;5.07;;
50249;SDS011;36133;42.522;27.456;2022-12-18T04:20:11;5.15;;;4.32;;
50249;SDS011;36133;42.522;27.456;2022-12-18T04:23:02;7.25;;;4.43;;
50249;SDS011;36133;42.522;27.456;2022-12-18T04:28:29;6.20;;;5.10;;
50249;SDS011;36133;42.522;27.456;2022-12-18T04:31:04;8.68;;;5.10;;
50249;SDS011;36133;42.522;27.456;2022-12-18T04:33:38;7.32;;;5.45;;
50249;SDS011;36133;42.522;27.456;2022-12-18T04:36:09;7.70;;;5.53;;
50249;SDS011;36133;42.522;27.456;2022-12-18T04:38:41;7.95;;;5.50;;
50249;SDS011;36133;42.522;27.456;2022-12-18T04:41:27;7.43;;;5.53;;
50249;SDS011;36133;42.522;27.456;2022-12-18T04:43:53;8.40;;;6.05;;
50249;SDS011;36133;42.522;27.456;2022-12-18T04:46:23;10.32;;;7.00;;
50249;SDS011;36133;42.522;27.456;2022-12-18T04:48:49;10.55;;;7.82;;
50249;SDS011;36133;42.522;27.456;2022-12-18T04:51:14;9.63;;;6.28;;
50249;SDS011;36133;42.522;27.456;2022-12-18T04:53:40;9.30;;;6.78;;
50249;SDS011;36133;42.522;27.456;2022-12-18T04:56:07;8.43;;;6.25;;
50249;SDS011;36133;42.522;27.456;2022-12-18T04:58:35;10.57;;;7.00;;
50249;SDS011;36133;42.522;27.456;2022-12-18T05:01:05;10.55;;;6.53;;
50249;SDS011;36133;42.522;27.456;2022-12-18T05:03:31;10.95;;;6.88;;
50249;SDS011;36133;42.522;27.456;2022-12-18T05:05:56;9.10;;;6.20;;
50249;SDS011;36133;42.522;27.456;2022-12-18T05:08:22;10.10;;;5.88;;
50249;SDS011;36133;42.522;27.456;2022-12-18T05:10:48;8.63;;;5.80;;
50249;SDS011;36133;42.522;27.456;2022-12-18T05:13:14;8.13;;;5.50;;
50249;SDS011;36133;42.522;27.456;2022-12-18T05:15:39;7.47;;;5.40;;
50249;SDS011;36133;42.522;27.456;2022-12-18T05:18:07;6.38;;;5.22;;
50249;SDS011;36133;42.522;27.456;2022-12-18T05:20:33;6.57;;;4.85;;
50249;SDS011;36133;42.522;27.456;2022-12-18T05:22:58;6.38;;;4.70;;
50249;SDS011;36133;42.522;27.456;2022-12-18T05:25:24;6.35;;;4.47;;
50249;SDS011;36133;42.522;27.456;2022-12-18T05:27:49;5.90;;;4.40;;
50249;SDS011;36133;42.522;27.456;2022-12-18T05:30:15;6.13;;;4.60;;
50249;SDS011;36133;42.522;27.456;2022-12-18T05:32:42;6.80;;;4.30;;
50249;SDS011;36133;42.522;27.456;2022-12-18T05:35:08;5.75;;;4.30;;
50249;SDS011;36133;42.522;27.456;2022-12-18T05:37:35;5.13;;;4.13;;
50249;SDS011;36133;42.522;27.456;2022-12-18T05:40:02;7.32;;;4.57;;
50249;SDS011;36133;42.522;27.456;2022-12-18T05:42:28;8.38;;;4.32;;
50249;SDS011;36133;42.522;27.456;2022-12-18T05:44:55;7.32;;;4.40;;
50249;SDS011;36133;42.522;27.456;2022-12-18T05:47:21;7.18;;;4.45;;
50249;SDS011;36133;42.522;27.456;2022-12-18T05:49:46;10.45;;;5.68;;
50249;SDS011;36133;42.522;27.456;2022-12-18T05:52:12;8.38;;;4.72;;
50249;SDS011;36133;42.522;27.456;2022-12-18T05:54:38;5.90;;;4.60;;
50249;SDS011;36133;42.522;27.456;2022-12-18T05:57:04;8.13;;;5.78;;
50249;SDS011;36133;42.522;27.456;2022-12-18T05:59:30;7.80;;;4.57;;
50249;SDS011;36133;42.522;27.456;2022-12-18T06:01:55;7.88;;;5.18;;
50249;SDS011;36133;42.522;27.456;2022-12-18T06:04:21;6.22;;;4.63;;
50249;SDS011;36133;42.522;27.456;2022-12-18T06:06:48;6.20;;;3.63;;
50249;SDS011;36133;42.522;27.456;2022-12-18T06:09:13;4.93;;;3.45;;
50249;SDS011;36133;42.522;27.456;2022-12-18T06:11:39;5.28;;;3.85;;
50249;SDS011;36133;42.522;27.456;2022-12-18T06:14:05;5.72;;;3.88;;
50249;SDS011;36133;42.522;27.456;2022-12-18T06:16:31;6.13;;;3.90;;
50249;SDS011;36133;42.522;27.456;2022-12-18T06:18:58;4.63;;;3.75;;
50249;SDS011;36133;42.522;27.456;2022-12-18T06:21:25;6.75;;;4.78;;
50249;SDS011;36133;42.522;27.456;2022-12-18T06:23:51;6.28;;;4.57;;
50249;SDS011;36133;42.522;27.456;2022-12-18T06:26:17;6.25;;;4.80;;
50249;SDS011;36133;42.522;27.456;2022-12-18T06:32:06;7.28;;;5.35;;
50249;SDS011;36133;42.522;27.456;2022-12-18T06:34:31;8.95;;;5.60;;
50249;SDS011;36133;42.522;27.456;2022-12-18T06:36:57;8.95;;;5.85;;
50249;SDS011;36133;42.522;27.456;2022-12-18T06:39:23;9.20;;;6.55;;
50249;SDS011;36133;42.522;27.456;2022-12-18T06:41:49;9.63;;;5.95;;
50249;SDS011;36133;42.522;27.456;2022-12-18T06:44:16;10.30;;;6.30;;
50249;SDS011;36133;42.522;27.456;2022-12-18T06:46:45;10.57;;;6.95;;
50249;SDS011;36133;42.522;27.456;2022-12-18T06:52:33;12.93;;;7.43;;
50249;SDS011;36133;42.522;27.456;2022-12-18T06:54:59;9.50;;;6.95;;
50249;SDS011;36133;42.522;27.456;2022-12-18T06:57:26;9.95;;;7.68;;
50249;SDS011;36133;42.522;27.456;2022-12-18T06:59:52;11.15;;;7.28;;
50249;SDS011;36133;42.522;27.456;2022-12-18T07:02:18;11.98;;;8.18;;
50249;SDS011;36133;42.522;27.456;2022-12-18T07:14:42;15.52;;;10.05;;
50249;SDS011;36133;42.522;27.456;2022-12-18T07:20:49;16.95;;;10.27;;
50249;SDS011;36133;42.522;27.456;2022-12-18T07:26:55;21.00;;;9.95;;
50249;SDS011;36133;42.522;27.456;2022-12-18T07:32:57;15.02;;;9.85;;
50249;SDS011;36133;42.522;27.456;2022-12-18T07:48:26;16.42;;;9.25;;
50249;SDS011;36133;42.522;27.456;2022-12-18T09:09:59;26.63;;;14.63;;
50249;SDS011;36133;42.522;27.456;2022-12-18T09:12:24;24.83;;;14.38;;
50249;SDS011;36133;42.522;27.456;2022-12-18T09:14:50;21.73;;;13.57;;
50249;SDS011;36133;42.522;27.456;2022-12-18T09:17:16;22.10;;;13.77;;
50249;SDS011;36133;42.522;27.456;2022-12-18T09:19:42;21.20;;;12.65;;
50249;SDS011;36133;42.522;27.456;2022-12-18T09:22:08;21.60;;;12.93;;
50249;SDS011;36133;42.522;27.456;2022-12-18T09:24:35;26.30;;;13.23;;
50249;SDS011;36133;42.522;27.456;2022-12-18T09:27:01;21.60;;;13.13;;
50249;SDS011;36133;42.522;27.456;2022-12-18T09:29:30;23.63;;;14.18;;
50249;SDS011;36133;42.522;27.456;2022-12-18T09:31:59;25.98;;;14.60;;
50249;SDS011;36133;42.522;27.456;2022-12-18T09:34:25;25.45;;;14.48;;
50249;SDS011;36133;42.522;27.456;2022-12-18T09:36:50;28.23;;;15.57;;
50249;SDS011;36133;42.522;27.456;2022-12-18T09:39:19;24.75;;;14.02;;
50249;SDS011;36133;42.522;27.456;2022-12-18T09:41:52;35.70;;;15.23;;
50249;SDS011;36133;42.522;27.456;2022-12-18T09:44:21;26.27;;;13.88;;
50249;SDS011;36133;42.522;27.456;2022-12-18T09:47:13;23.60;;;13.63;;
50249;SDS011;36133;42.522;27.456;2022-12-18T09:50:05;31.45;;;16.10;;
50249;SDS011;36133;42.522;27.456;2022-12-18T09:52:49;26.13;;;15.05;;
50249;SDS011;36133;42.522;27.456;2022-12-18T09:55:24;21.95;;;13.80;;
50249;SDS011;36133;42.522;27.456;2022-12-18T10:15:53;23.83;;;15.23;;
50249;SDS011;36133;42.522;27.456;2022-12-18T10:21:09;27.52;;;15.88;;
50249;SDS011;36133;42.522;27.456;2022-12-18T10:27:43;34.13;;;15.30;;
50249;SDS011;36133;42.522;27.456;2022-12-18T10:30:14;30.75;;;16.90;;
50249;SDS011;36133;42.522;27.456;2022-12-18T10:32:44;30.75;;;17.40;;
50249;SDS011;36133;42.522;27.456;2022-12-18T10:35:22;29.42;;;17.67;;
50249;SDS011;36133;42.522;27.456;2022-12-18T23:46:21;34.42;;;17.90;;
50249;SDS011;36133;42.522;27.456;2022-12-18T23:52:11;28.58;;;16.95;;
50249;SDS011;36133;42.522;27.456;2022-12-18T23:58:00;29.08;;;16.50;;
